sensor_id;sensor_type;location;lat;lon;timestamp;pressure;altitude;pressure_sealevel;temperature;humidity
69171;BME280;56279;47.902;12.308;2023-08-17T00:01:54;95521.97;;;18.95;100.00
69171;BME280;56279;47.902;12.308;2023-08-17T00:03:55;95523.41;;;18.92;100.00
69171;BME280;56279;47.902;12.308;2023-08-17T00:05:57;95523.59;;;18.87;100.00
69171;BME280;56279;47.902;12.308;2023-08-17T00:08:00;95525.81;;;18.85;100.00
69171;BME280;56279;47.902;12.308;2023-08-17T00:10:02;95525.66;;;18.82;100.00
69171;BME280;56279;47.902;12.308;2023-08-17T00:12:04;95524.88;;;18.81;100.00
69171;BME280;56279;47.902;12.308;2023-08-17T00:14:05;95524.88;;;18.81;100.00
69171;BME280;56279;47.902;12.308;2023-08-17T00:16:07;95532.88;;;18.81;100.00
69171;BME280;56279;47.902;12.308;2023-08-17T00:18:08;95529.91;;;18.83;100.00
69171;BME280;56279;47.902;12.308;2023-08-17T00:20:10;95523.78;;;18.82;100.00
69171;BME280;56279;47.902;12.308;2023-08-17T00:22:11;95523.78;;;18.82;100.00
69171;BME280;56279;47.902;12.308;2023-08-17T00:24:12;95516.84;;;18.81;100.00
69171;BME280;56279;47.902;12.308;2023-08-17T00:26:14;95523.44;;;18.84;100.00
69171;BME280;56279;47.902;12.308;2023-08-17T00:28:15;95523.13;;;18.85;100.00
69171;BME280;56279;47.902;12.308;2023-08-17T00:30:17;95528.94;;;18.87;100.00
69171;BME280;56279;47.902;12.308;2023-08-17T00:32:18;95524.38;;;18.88;100.00
69171;BME280;56279;47.902;12.308;2023-08-17T00:34:19;95520.91;;;18.87;100.00
69171;BME280;56279;47.902;12.308;2023-08-17T00:36:22;95517.44;;;18.87;100.00
69171;BME280;56279;47.902;12.308;2023-08-17T00:38:23;95519.34;;;18.86;100.00
69171;BME280;56279;47.902;12.308;2023-08-17T00:40:24;95519.66;;;18.85;100.00
69171;BME280;56279;47.902;12.308;2023-08-17T00:42:26;95515.75;;;18.82;100.00
69171;BME280;56279;47.902;12.308;2023-08-17T00:44:27;95523.31;;;18.80;100.00
69171;BME280;56279;47.902;12.308;2023-08-17T00:46:29;95515.59;;;18.79;100.00
69171;BME280;56279;47.902;12.308;2023-08-17T00:48:31;95531.19;;;18.77;100.00
69171;BME280;56279;47.902;12.308;2023-08-17T00:50:34;95529.19;;;18.74;100.00
69171;BME280;56279;47.902;12.308;2023-08-17T00:52:37;95530.16;;;18.69;100.00
69171;BME280;56279;47.902;12.308;2023-08-17T00:54:40;95529.66;;;18.67;100.00
69171;BME280;56279;47.902;12.308;2023-08-17T00:56:41;95523.84;;;18.65;100.00
69171;BME280;56279;47.902;12.308;2023-08-17T00:58:43;95528.44;;;18.65;100.00
69171;BME280;56279;47.902;12.308;2023-08-17T01:00:44;95519.63;;;18.64;100.00
69171;BME280;56279;47.902;12.308;2023-08-17T01:02:46;95531.13;;;18.65;100.00
69171;BME280;56279;47.902;12.308;2023-08-17T01:04:50;95527.97;;;18.62;100.00
69171;BME280;56279;47.902;12.308;2023-08-17T01:06:52;95525.28;;;18.62;100.00
69171;BME280;56279;47.902;12.308;2023-08-17T01:08:54;95514.91;;;18.61;100.00
69171;BME280;56279;47.902;12.308;2023-08-17T01:13:27;95516.00;;;18.60;100.00
69171;BME280;56279;47.902;12.308;2023-08-17T01:15:44;95520.28;;;18.61;100.00
69171;BME280;56279;47.902;12.308;2023-08-17T01:20:08;95523.72;;;18.61;100.00
69171;BME280;56279;47.902;12.308;2023-08-17T01:22:17;95520.91;;;18.58;100.00
69171;BME280;56279;47.902;12.308;2023-08-17T01:24:20;95527.03;;;18.58;100.00
69171;BME280;56279;47.902;12.308;2023-08-17T01:26:21;95522.31;;;18.55;100.00
69171;BME280;56279;47.902;12.308;2023-08-17T01:28:23;95519.34;;;18.57;100.00
69171;BME280;56279;47.902;12.308;2023-08-17T01:30:24;95512.88;;;18.58;100.00
69171;BME280;56279;47.902;12.308;2023-08-17T01:32:51;95518.56;;;18.56;100.00
69171;BME280;56279;47.902;12.308;2023-08-17T01:35:01;95515.56;;;18.58;100.00
69171;BME280;56279;47.902;12.308;2023-08-17T01:37:07;95521.34;;;18.60;100.00
69171;BME280;56279;47.902;12.308;2023-08-17T01:39:11;95523.72;;;18.61;100.00
69171;BME280;56279;47.902;12.308;2023-08-17T01:41:14;95516.50;;;18.62;100.00
69171;BME280;56279;47.902;12.308;2023-08-17T01:43:17;95522.59;;;18.62;100.00
69171;BME280;56279;47.902;12.308;2023-08-17T01:45:19;95515.38;;;18.63;100.00
69171;BME280;56279;47.902;12.308;2023-08-17T01:47:23;95521.84;;;18.62;100.00
69171;BME280;56279;47.902;12.308;2023-08-17T01:49:25;95532.22;;;18.63;100.00
69171;BME280;56279;47.902;12.308;2023-08-17T01:51:28;95527.97;;;18.62;100.00
69171;BME280;56279;47.902;12.308;2023-08-17T01:53:29;95532.53;;;18.62;100.00
69171;BME280;56279;47.902;12.308;2023-08-17T01:55:31;95537.41;;;18.60;100.00
69171;BME280;56279;47.902;12.308;2023-08-17T01:57:32;95530.84;;;18.57;100.00
69171;BME280;56279;47.902;12.308;2023-08-17T01:59:33;95532.72;;;18.57;100.00
69171;BME280;56279;47.902;12.308;2023-08-17T02:01:36;95523.13;;;18.56;100.00
69171;BME280;56279;47.902;12.308;2023-08-17T02:03:38;95518.09;;;18.54;100.00
69171;BME280;56279;47.902;12.308;2023-08-17T02:05:47;95524.53;;;18.53;100.00
69171;BME280;56279;47.902;12.308;2023-08-17T02:07:50;95526.44;;;18.53;100.00
69171;BME280;56279;47.902;12.308;2023-08-17T02:09:51;95519.84;;;18.50;100.00
69171;BME280;56279;47.902;12.308;2023-08-17T02:11:52;95524.41;;;18.50;100.00
69171;BME280;56279;47.902;12.308;2023-08-17T02:13:54;95519.69;;;18.47;100.00
69171;BME280;56279;47.902;12.308;2023-08-17T02:15:55;95519.22;;;18.45;100.00
69171;BME280;56279;47.902;12.308;2023-08-17T02:17:59;95512.63;;;18.42;100.00
69171;BME280;56279;47.902;12.308;2023-08-17T02:20:01;95504.78;;;18.37;100.00
69171;BME280;56279;47.902;12.308;2023-08-17T02:22:03;95502.09;;;18.37;100.00
69171;BME280;56279;47.902;12.308;2023-08-17T02:24:04;95500.06;;;18.34;100.00
69171;BME280;56279;47.902;12.308;2023-08-17T02:26:07;95506.88;;;18.32;100.00
69171;BME280;56279;47.902;12.308;2023-08-17T02:28:09;95502.16;;;18.29;100.00
69171;BME280;56279;47.902;12.308;2023-08-17T02:30:11;95495.88;;;18.25;100.00
69171;BME280;56279;47.902;12.308;2023-08-17T02:32:12;95493.84;;;18.22;100.00
69171;BME280;56279;47.902;12.308;2023-08-17T02:34:14;95491.50;;;18.20;100.00
69171;BME280;56279;47.902;12.308;2023-08-17T02:36:15;95490.25;;;18.18;100.00
69171;BME280;56279;47.902;12.308;2023-08-17T02:38:17;95488.22;;;18.15;100.00
69171;BME280;56279;47.902;12.308;2023-08-17T02:40:18;95494.19;;;18.12;100.00
69171;BME280;56279;47.902;12.308;2023-08-17T02:42:19;95490.72;;;18.11;100.00
69171;BME280;56279;47.902;12.308;2023-08-17T02:44:21;95480.69;;;18.08;100.00
69171;BME280;56279;47.902;12.308;2023-08-17T02:46:23;95479.56;;;18.09;100.00
69171;BME280;56279;47.902;12.308;2023-08-17T02:48:24;95478.50;;;18.10;100.00
69171;BME280;56279;47.902;12.308;2023-08-17T02:50:26;95481.63;;;18.12;100.00
69171;BME280;56279;47.902;12.308;2023-08-17T02:52:27;95481.63;;;18.12;100.00
69171;BME280;56279;47.902;12.308;2023-08-17T02:54:28;95474.69;;;18.11;100.00
69171;BME280;56279;47.902;12.308;2023-08-17T02:56:30;95477.69;;;18.10;100.00
69171;BME280;56279;47.902;12.308;2023-08-17T02:58:31;95478.34;;;18.07;100.00
69171;BME280;56279;47.902;12.308;2023-08-17T03:00:32;95480.25;;;18.06;100.00
69171;BME280;56279;47.902;12.308;2023-08-17T03:02:34;95470.19;;;18.03;100.00
69171;BME280;56279;47.902;12.308;2023-08-17T03:04:37;95473.19;;;18.02;100.00
69171;BME280;56279;47.902;12.308;2023-08-17T03:06:38;95467.34;;;18.00;100.00
69171;BME280;56279;47.902;12.308;2023-08-17T03:08:39;95466.59;;;17.99;100.00
69171;BME280;56279;47.902;12.308;2023-08-17T03:10:40;95472.25;;;17.98;100.00
69171;BME280;56279;47.902;12.308;2023-08-17T03:12:42;95471.78;;;17.95;100.00
69171;BME280;56279;47.902;12.308;2023-08-17T03:14:44;95476.66;;;17.93;100.00
69171;BME280;56279;47.902;12.308;2023-08-17T03:16:45;95465.81;;;17.90;100.00
69171;BME280;56279;47.902;12.308;2023-08-17T03:18:46;95481.38;;;17.88;100.00
69171;BME280;56279;47.902;12.308;2023-08-17T03:20:49;95472.91;;;17.86;100.00
69171;BME280;56279;47.902;12.308;2023-08-17T03:22:50;95472.44;;;17.84;100.00
69171;BME280;56279;47.902;12.308;2023-08-17T03:24:55;95476.53;;;17.81;100.00
69171;BME280;56279;47.902;12.308;2023-08-17T03:26:56;95480.31;;;17.80;100.00
69171;BME280;56279;47.902;12.308;2023-08-17T03:28:59;95475.59;;;17.77;100.00
69171;BME280;56279;47.902;12.308;2023-08-17T03:31:02;95479.38;;;17.76;100.00
69171;BME280;56279;47.902;12.308;2023-08-17T03:33:05;95483.16;;;17.75;100.00
69171;BME280;56279;47.902;12.308;2023-08-17T03:35:07;95482.69;;;17.73;100.00
69171;BME280;56279;47.902;12.308;2023-08-17T03:37:09;95483.78;;;17.72;100.00
69171;BME280;56279;47.902;12.308;2023-08-17T03:39:10;95484.56;;;17.73;100.00
69171;BME280;56279;47.902;12.308;2023-08-17T03:41:12;95481.09;;;17.72;100.00
69171;BME280;56279;47.902;12.308;2023-08-17T03:43:15;95495.88;;;17.70;100.00
69171;BME280;56279;47.902;12.308;2023-08-17T03:45:17;95494.00;;;17.70;100.00
69171;BME280;56279;47.902;12.308;2023-08-17T03:47:19;95497.75;;;17.69;100.00
69171;BME280;56279;47.902;12.308;2023-08-17T03:49:21;95493.53;;;17.68;100.00
69171;BME280;56279;47.902;12.308;2023-08-17T03:51:22;95505.63;;;17.66;100.00
69171;BME280;56279;47.902;12.308;2023-08-17T03:53:24;95510.16;;;17.65;100.00
69171;BME280;56279;47.902;12.308;2023-08-17T03:55:25;95515.84;;;17.64;100.00
69171;BME280;56279;47.902;12.308;2023-08-17T03:57:26;95517.25;;;17.61;100.00
69171;BME280;56279;47.902;12.308;2023-08-17T03:59:28;95514.88;;;17.60;100.00
69171;BME280;56279;47.902;12.308;2023-08-17T04:01:29;95505.31;;;17.59;100.00
69171;BME280;56279;47.902;12.308;2023-08-17T04:03:31;95504.53;;;17.58;100.00
69171;BME280;56279;47.902;12.308;2023-08-17T04:05:33;95500.75;;;17.59;100.00
69171;BME280;56279;47.902;12.308;2023-08-17T04:07:36;95505.44;;;17.62;100.00
69171;BME280;56279;47.902;12.308;2023-08-17T04:09:43;95513.63;;;17.66;100.00
69171;BME280;56279;47.902;12.308;2023-08-17T04:11:45;95512.22;;;17.68;100.00
69171;BME280;56279;47.902;12.308;2023-08-17T04:13:46;95511.88;;;17.70;100.00
69171;BME280;56279;47.902;12.308;2023-08-17T04:15:48;95502.63;;;17.67;100.00
69171;BME280;56279;47.902;12.308;2023-08-17T04:17:49;95503.25;;;17.64;100.00
69171;BME280;56279;47.902;12.308;2023-08-17T04:19:50;95508.13;;;17.62;100.00
69171;BME280;56279;47.902;12.308;2023-08-17T04:21:52;95506.56;;;17.61;100.00
69171;BME280;56279;47.902;12.308;2023-08-17T04:23:53;95512.19;;;17.60;100.00
69171;BME280;56279;47.902;12.308;2023-08-17T04:25:55;95520.38;;;17.63;100.00
69171;BME280;56279;47.902;12.308;2023-08-17T04:27:56;95520.06;;;17.65;100.00
69171;BME280;56279;47.902;12.308;2023-08-17T04:30:00;95517.84;;;17.67;100.00
69171;BME280;56279;47.902;12.308;2023-08-17T04:32:05;95519.09;;;17.69;100.00
69171;BME280;56279;47.902;12.308;2023-08-17T04:34:06;95523.03;;;17.72;100.00
69171;BME280;56279;47.902;12.308;2023-08-17T04:36:08;95515.03;;;17.72;100.00
69171;BME280;56279;47.902;12.308;2023-08-17T04:38:09;95515.81;;;17.72;100.00
69171;BME280;56279;47.902;12.308;2023-08-17T04:40:12;95514.72;;;17.73;100.00
69171;BME280;56279;47.902;12.308;2023-08-17T04:42:13;95511.41;;;17.76;100.00
69171;BME280;56279;47.902;12.308;2023-08-17T04:44:15;95510.78;;;17.79;100.00
69171;BME280;56279;47.902;12.308;2023-08-17T04:46:16;95506.34;;;17.83;100.00
69171;BME280;56279;47.902;12.308;2023-08-17T04:48:18;95508.41;;;17.86;100.00
69171;BME280;56279;47.902;12.308;2023-08-17T04:50:21;95513.88;;;17.90;100.00
69171;BME280;56279;47.902;12.308;2023-08-17T04:52:23;95506.81;;;17.94;100.00
69171;BME280;56279;47.902;12.308;2023-08-17T04:54:25;95513.41;;;17.97;100.00
69171;BME280;56279;47.902;12.308;2023-08-17T04:56:27;95507.28;;;17.96;100.00
69171;BME280;56279;47.902;12.308;2023-08-17T04:58:29;95509.63;;;17.98;100.00
69171;BME280;56279;47.902;12.308;2023-08-17T05:00:33;95515.13;;;18.01;100.00
69171;BME280;56279;47.902;12.308;2023-08-17T05:02:37;95517.94;;;18.05;100.00
69171;BME280;56279;47.902;12.308;2023-08-17T05:04:39;95513.38;;;18.05;100.00
69171;BME280;56279;47.902;12.308;2023-08-17T05:06:41;95520.59;;;18.05;100.00
69171;BME280;56279;47.902;12.308;2023-08-17T05:08:43;95525.66;;;18.06;100.00
69171;BME280;56279;47.902;12.308;2023-08-17T05:10:44;95521.22;;;18.10;100.00
69171;BME280;56279;47.902;12.308;2023-08-17T05:12:46;95527.16;;;18.16;100.00
69171;BME280;56279;47.902;12.308;2023-08-17T05:14:48;95533.00;;;18.18;100.00
69171;BME280;56279;47.902;12.308;2023-08-17T05:16:49;95527.78;;;18.21;100.00
69171;BME280;56279;47.902;12.308;2023-08-17T05:18:51;95531.38;;;18.25;100.00
69171;BME280;56279;47.902;12.308;2023-08-17T05:20:53;95533.09;;;18.30;100.00
69171;BME280;56279;47.902;12.308;2023-08-17T05:22:55;95538.25;;;18.35;100.00
69171;BME280;56279;47.902;12.308;2023-08-17T05:24:58;95539.34;;;18.42;100.00
69171;BME280;56279;47.902;12.308;2023-08-17T05:27:00;95538.25;;;18.43;100.00
69171;BME280;56279;47.902;12.308;2023-08-17T05:29:02;95537.13;;;18.44;100.00
69171;BME280;56279;47.902;12.308;2023-08-17T05:31:05;95543.28;;;18.45;100.00
69171;BME280;56279;47.902;12.308;2023-08-17T05:33:10;95543.59;;;18.43;100.00
69171;BME280;56279;47.902;12.308;2023-08-17T05:35:12;95551.28;;;18.45;100.00
69171;BME280;56279;47.902;12.308;2023-08-17T05:37:13;95559.47;;;18.48;100.00
69171;BME280;56279;47.902;12.308;2023-08-17T05:39:16;95559.28;;;18.53;100.00
69171;BME280;56279;47.902;12.308;2023-08-17T05:41:19;95559.91;;;18.59;100.00
69171;BME280;56279;47.902;12.308;2023-08-17T05:43:20;95558.63;;;18.65;100.00
69171;BME280;56279;47.902;12.308;2023-08-17T05:45:22;95559.06;;;18.76;100.00
69171;BME280;56279;47.902;12.308;2023-08-17T05:47:25;95556.47;;;18.88;100.00
69171;BME280;56279;47.902;12.308;2023-08-17T05:49:27;95560.34;;;18.99;100.00
69171;BME280;56279;47.902;12.308;2023-08-17T05:51:28;95559.50;;;19.07;100.00
69171;BME280;56279;47.902;12.308;2023-08-17T05:53:30;95560.88;;;19.13;100.00
69171;BME280;56279;47.902;12.308;2023-08-17T05:55:31;95567.47;;;19.15;100.00
69171;BME280;56279;47.902;12.308;2023-08-17T05:57:33;95563.03;;;19.19;100.00
69171;BME280;56279;47.902;12.308;2023-08-17T05:59:35;95553.69;;;19.25;100.00
69171;BME280;56279;47.902;12.308;2023-08-17T06:01:37;95559.00;;;19.34;100.00
69171;BME280;56279;47.902;12.308;2023-08-17T06:03:39;95565.13;;;19.43;100.00
69171;BME280;56279;47.902;12.308;2023-08-17T06:05:40;95569.28;;;19.53;100.00
69171;BME280;56279;47.902;12.308;2023-08-17T06:07:44;95564.00;;;19.65;100.00
69171;BME280;56279;47.902;12.308;2023-08-17T06:09:46;95561.50;;;19.80;100.00
69171;BME280;56279;47.902;12.308;2023-08-17T06:11:47;95565.25;;;20.00;100.00
69171;BME280;56279;47.902;12.308;2023-08-17T06:13:48;95552.03;;;20.16;100.00
69171;BME280;56279;47.902;12.308;2023-08-17T06:15:50;95558.78;;;20.34;100.00
69171;BME280;56279;47.902;12.308;2023-08-17T06:17:51;95561.59;;;20.49;99.91
69171;BME280;56279;47.902;12.308;2023-08-17T06:19:52;95555.81;;;20.59;98.93
69171;BME280;56279;47.902;12.308;2023-08-17T06:21:54;95558.72;;;20.66;98.84
69171;BME280;56279;47.902;12.308;2023-08-17T06:23:55;95564.97;;;20.71;98.19
69171;BME280;56279;47.902;12.308;2023-08-17T06:25:59;95560.06;;;20.73;98.20
69171;BME280;56279;47.902;12.308;2023-08-17T06:28:01;95555.91;;;20.75;98.37
69171;BME280;56279;47.902;12.308;2023-08-17T06:30:03;95571.25;;;20.75;98.34
69171;BME280;56279;47.902;12.308;2023-08-17T06:32:07;95567.78;;;20.74;98.32
69171;BME280;56279;47.902;12.308;2023-08-17T06:34:09;95571.69;;;20.77;98.41
69171;BME280;56279;47.902;12.308;2023-08-17T06:36:10;95570.56;;;20.78;98.50
69171;BME280;56279;47.902;12.308;2023-08-17T06:38:15;95562.97;;;20.80;98.54
69171;BME280;56279;47.902;12.308;2023-08-17T06:40:17;95554.91;;;20.80;98.68
69171;BME280;56279;47.902;12.308;2023-08-17T06:42:18;95562.50;;;20.78;98.79
69171;BME280;56279;47.902;12.308;2023-08-17T06:44:19;95560.19;;;20.76;98.92
69171;BME280;56279;47.902;12.308;2023-08-17T06:46:21;95555.59;;;20.77;98.82
69171;BME280;56279;47.902;12.308;2023-08-17T06:48:22;95555.38;;;20.82;98.52
69171;BME280;56279;47.902;12.308;2023-08-17T06:50:24;95559.28;;;20.84;98.39
69171;BME280;56279;47.902;12.308;2023-08-17T06:52:26;95564.31;;;20.86;98.26
69171;BME280;56279;47.902;12.308;2023-08-17T06:54:27;95570.34;;;20.83;98.20
69171;BME280;56279;47.902;12.308;2023-08-17T06:56:28;95560.97;;;20.77;97.88
69171;BME280;56279;47.902;12.308;2023-08-17T06:58:30;95568.56;;;20.75;97.85
69171;BME280;56279;47.902;12.308;2023-08-17T07:00:31;95573.03;;;20.71;97.48
69171;BME280;56279;47.902;12.308;2023-08-17T07:02:33;95571.47;;;20.70;97.52
69171;BME280;56279;47.902;12.308;2023-08-17T07:04:35;95568.34;;;20.67;97.24
69171;BME280;56279;47.902;12.308;2023-08-17T07:06:36;95569.91;;;20.68;97.42
69171;BME280;56279;47.902;12.308;2023-08-17T07:08:38;95567.22;;;20.68;97.50
69171;BME280;56279;47.902;12.308;2023-08-17T07:10:40;95563.41;;;20.70;97.23
69171;BME280;56279;47.902;12.308;2023-08-17T07:12:41;95566.56;;;20.72;97.32
69171;BME280;56279;47.902;12.308;2023-08-17T07:14:42;95577.06;;;20.77;97.45
69171;BME280;56279;47.902;12.308;2023-08-17T07:16:44;95580.63;;;20.81;97.60
69171;BME280;56279;47.902;12.308;2023-08-17T07:18:45;95576.06;;;20.81;97.02
69171;BME280;56279;47.902;12.308;2023-08-17T07:20:46;95575.28;;;20.81;96.73
69171;BME280;56279;47.902;12.308;2023-08-17T07:22:47;95579.53;;;20.82;96.84
69171;BME280;56279;47.902;12.308;2023-08-17T07:24:49;95578.19;;;20.88;97.13
69171;BME280;56279;47.902;12.308;2023-08-17T07:26:50;95578.28;;;20.91;96.74
69171;BME280;56279;47.902;12.308;2023-08-17T07:28:51;95581.88;;;20.95;96.43
69171;BME280;56279;47.902;12.308;2023-08-17T07:30:53;95588.56;;;21.01;96.03
69171;BME280;56279;47.902;12.308;2023-08-17T07:32:54;95579.97;;;21.08;96.49
69171;BME280;56279;47.902;12.308;2023-08-17T07:34:56;95574.75;;;21.11;96.19
69171;BME280;56279;47.902;12.308;2023-08-17T07:36:57;95577.53;;;21.15;95.38
69171;BME280;56279;47.902;12.308;2023-08-17T07:38:59;95578.44;;;21.19;95.07
69171;BME280;56279;47.902;12.308;2023-08-17T07:41:01;95576.28;;;21.24;94.88
69171;BME280;56279;47.902;12.308;2023-08-17T07:43:02;95579.09;;;21.28;95.10
69171;BME280;56279;47.902;12.308;2023-08-17T07:45:04;95578.06;;;21.32;94.23
69171;BME280;56279;47.902;12.308;2023-08-17T07:47:07;95579.75;;;21.37;93.97
69171;BME280;56279;47.902;12.308;2023-08-17T07:49:08;95582.97;;;21.43;93.39
69171;BME280;56279;47.902;12.308;2023-08-17T07:51:10;95582.72;;;21.48;92.97
69171;BME280;56279;47.902;12.308;2023-08-17T07:53:12;95585.53;;;21.51;92.04
69171;BME280;56279;47.902;12.308;2023-08-17T07:55:13;95582.25;;;21.58;91.23
69171;BME280;56279;47.902;12.308;2023-08-17T07:57:14;95581.34;;;21.66;90.79
69171;BME280;56279;47.902;12.308;2023-08-17T07:59:16;95575.63;;;21.67;90.79
69171;BME280;56279;47.902;12.308;2023-08-17T08:01:17;95585.00;;;21.73;90.74
69171;BME280;56279;47.902;12.308;2023-08-17T08:03:19;95581.75;;;21.80;90.32
69171;BME280;56279;47.902;12.308;2023-08-17T08:05:20;95582.69;;;21.84;89.85
69171;BME280;56279;47.902;12.308;2023-08-17T08:07:22;95578.16;;;21.88;89.48
69171;BME280;56279;47.902;12.308;2023-08-17T08:09:23;95579.84;;;21.92;89.44
69171;BME280;56279;47.902;12.308;2023-08-17T08:11:25;95583.38;;;21.96;89.60
69171;BME280;56279;47.902;12.308;2023-08-17T08:13:30;95589.66;;;22.00;89.77
69171;BME280;56279;47.902;12.308;2023-08-17T08:15:33;95582.13;;;22.06;89.63
69171;BME280;56279;47.902;12.308;2023-08-17T08:17:34;95585.34;;;22.12;88.17
69171;BME280;56279;47.902;12.308;2023-08-17T08:19:36;95582.19;;;22.22;87.27
69171;BME280;56279;47.902;12.308;2023-08-17T08:21:37;95590.75;;;22.27;87.38
69171;BME280;56279;47.902;12.308;2023-08-17T08:23:39;95581.91;;;22.27;87.64
69171;BME280;56279;47.902;12.308;2023-08-17T08:25:40;95576.28;;;22.32;87.42
69171;BME280;56279;47.902;12.308;2023-08-17T08:27:42;95574.91;;;22.38;86.97
69171;BME280;56279;47.902;12.308;2023-08-17T08:29:43;95583.50;;;22.43;87.04
69171;BME280;56279;47.902;12.308;2023-08-17T08:31:44;95577.06;;;22.48;86.23
69171;BME280;56279;47.902;12.308;2023-08-17T08:33:46;95577.19;;;22.51;86.22
69171;BME280;56279;47.902;12.308;2023-08-17T08:35:47;95578.47;;;22.57;84.69
69171;BME280;56279;47.902;12.308;2023-08-17T08:37:48;95587.56;;;22.65;84.62
69171;BME280;56279;47.902;12.308;2023-08-17T08:39:54;95584.25;;;22.72;84.79
69171;BME280;56279;47.902;12.308;2023-08-17T08:41:56;95584.78;;;22.77;84.19
69171;BME280;56279;47.902;12.308;2023-08-17T08:43:58;95579.56;;;22.84;83.38
69171;BME280;56279;47.902;12.308;2023-08-17T08:45:59;95574.00;;;22.93;83.25
69171;BME280;56279;47.902;12.308;2023-08-17T08:48:01;95578.75;;;22.99;83.22
69171;BME280;56279;47.902;12.308;2023-08-17T08:50:05;95576.59;;;23.05;82.93
69171;BME280;56279;47.902;12.308;2023-08-17T08:52:10;95574.91;;;23.16;82.62
69171;BME280;56279;47.902;12.308;2023-08-17T08:54:21;95578.63;;;23.27;82.19
69171;BME280;56279;47.902;12.308;2023-08-17T08:56:26;95576.66;;;23.40;81.62
69171;BME280;56279;47.902;12.308;2023-08-17T08:58:29;95570.34;;;23.51;81.85
69171;BME280;56279;47.902;12.308;2023-08-17T09:00:32;95570.59;;;23.62;81.96
69171;BME280;56279;47.902;12.308;2023-08-17T09:02:34;95571.16;;;23.71;81.71
69171;BME280;56279;47.902;12.308;2023-08-17T09:04:37;95576.34;;;23.79;82.56
69171;BME280;56279;47.902;12.308;2023-08-17T09:06:39;95575.28;;;23.84;81.50
69171;BME280;56279;47.902;12.308;2023-08-17T09:08:43;95570.53;;;23.96;80.79
69171;BME280;56279;47.902;12.308;2023-08-17T09:10:46;95567.59;;;24.05;79.97
69171;BME280;56279;47.902;12.308;2023-08-17T09:12:48;95568.91;;;24.11;79.53
69171;BME280;56279;47.902;12.308;2023-08-17T09:14:49;95566.75;;;24.20;79.03
69171;BME280;56279;47.902;12.308;2023-08-17T09:16:50;95565.72;;;24.25;78.87
69171;BME280;56279;47.902;12.308;2023-08-17T09:18:55;95568.59;;;24.35;78.12
69171;BME280;56279;47.902;12.308;2023-08-17T09:20:57;95567.16;;;24.41;77.23
69171;BME280;56279;47.902;12.308;2023-08-17T09:23:03;95560.34;;;24.47;77.01
69171;BME280;56279;47.902;12.308;2023-08-17T09:25:06;95562.66;;;24.49;76.89
69171;BME280;56279;47.902;12.308;2023-08-17T09:27:11;95558.03;;;24.49;76.55
69171;BME280;56279;47.902;12.308;2023-08-17T09:29:20;95555.88;;;24.58;77.13
69171;BME280;56279;47.902;12.308;2023-08-17T09:31:23;95551.81;;;24.68;76.29
69171;BME280;56279;47.902;12.308;2023-08-17T09:33:28;95550.81;;;24.76;75.68
69171;BME280;56279;47.902;12.308;2023-08-17T09:35:33;95550.16;;;24.83;74.83
69171;BME280;56279;47.902;12.308;2023-08-17T09:37:34;95550.28;;;24.90;74.87
69171;BME280;56279;47.902;12.308;2023-08-17T09:39:36;95547.91;;;24.88;74.08
69171;BME280;56279;47.902;12.308;2023-08-17T09:41:41;95547.59;;;24.93;75.16
69171;BME280;56279;47.902;12.308;2023-08-17T09:43:42;95552.34;;;25.00;75.45
69171;BME280;56279;47.902;12.308;2023-08-17T09:45:44;95543.88;;;25.01;74.96
69171;BME280;56279;47.902;12.308;2023-08-17T09:47:49;95545.09;;;25.04;74.92
69171;BME280;56279;47.902;12.308;2023-08-17T09:49:52;95539.00;;;25.10;75.88
69171;BME280;56279;47.902;12.308;2023-08-17T09:51:54;95545.59;;;25.13;74.50
69171;BME280;56279;47.902;12.308;2023-08-17T09:53:55;95537.91;;;25.15;73.93
69171;BME280;56279;47.902;12.308;2023-08-17T09:55:57;95541.03;;;25.17;74.06
69171;BME280;56279;47.902;12.308;2023-08-17T09:58:00;95538.38;;;25.20;74.90
69171;BME280;56279;47.902;12.308;2023-08-17T10:00:02;95536.84;;;25.23;73.46
69171;BME280;56279;47.902;12.308;2023-08-17T10:02:18;95537.28;;;25.25;73.92
69171;BME280;56279;47.902;12.308;2023-08-17T10:04:21;95534.22;;;25.26;73.66
69171;BME280;56279;47.902;12.308;2023-08-17T10:06:27;95540.91;;;25.36;73.39
69171;BME280;56279;47.902;12.308;2023-08-17T10:08:33;95538.38;;;25.47;73.09
69171;BME280;56279;47.902;12.308;2023-08-17T10:10:43;95539.66;;;25.56;72.80
69171;BME280;56279;47.902;12.308;2023-08-17T10:12:50;95542.47;;;25.63;72.90
69171;BME280;56279;47.902;12.308;2023-08-17T10:15:08;95536.00;;;25.71;73.06
69171;BME280;56279;47.902;12.308;2023-08-17T10:17:09;95530.63;;;25.75;71.74
69171;BME280;56279;47.902;12.308;2023-08-17T10:19:25;95532.97;;;25.76;71.23
69171;BME280;56279;47.902;12.308;2023-08-17T10:21:46;95534.09;;;25.72;72.76
69171;BME280;56279;47.902;12.308;2023-08-17T10:23:49;95533.72;;;25.73;71.06
69171;BME280;56279;47.902;12.308;2023-08-17T10:25:52;95532.19;;;25.76;71.08
69171;BME280;56279;47.902;12.308;2023-08-17T10:27:54;95531.09;;;25.80;71.76
69171;BME280;56279;47.902;12.308;2023-08-17T10:29:56;95530.72;;;25.82;70.34
69171;BME280;56279;47.902;12.308;2023-08-17T10:32:00;95536.59;;;25.87;70.61
69171;BME280;56279;47.902;12.308;2023-08-17T10:34:02;95530.44;;;25.90;70.47
69171;BME280;56279;47.902;12.308;2023-08-17T10:36:05;95531.59;;;25.89;69.13
69171;BME280;56279;47.902;12.308;2023-08-17T10:38:08;95526.13;;;25.86;70.07
69171;BME280;56279;47.902;12.308;2023-08-17T10:40:12;95534.28;;;25.89;69.77
69171;BME280;56279;47.902;12.308;2023-08-17T10:42:14;95526.91;;;25.86;69.55